This is the latest recevied weather packets stored in our database for station/object OH1KK. If no packets are shown the sender has not sent any weather packets the latest 10 day(s).
| Time | Temp. | Humidity | Pressure | Rain* | Wind** | Luminosity | Snow |
|---|---|---|---|---|---|---|---|
| 1778240053 | 11.67° C | 31% | 1018.4 hPa | 0 mm | - | - | - |
| 1778239199 | 11.67° C | 31% | 1018.4 hPa | 0 mm | - | - | - |
| 1778237369 | 11.67° C | 30% | 1018.2 hPa | 0 mm | - | - | - |
| 1778236454 | 11.67° C | 31% | 1018 hPa | 0 mm | - | - | - |
| 1778235600 | 11.11° C | 32% | 1017.9 hPa | 0 mm | - | - | - |
| 1778235541 | 11.11° C | 32% | 1018.1 hPa | 0 mm | - | - | - |
| 1778232855 | 10° C | 38% | 1017.8 hPa | 0 mm | - | - | - |
| 1778230171 | 10° C | 39% | 1017.7 hPa | 0 mm | - | - | - |
| 1778229256 | 10° C | 46% | 1017.7 hPa | 0 mm | - | - | - |
| 1778228341 | 10.56° C | 45% | 1017.6 hPa | 0 mm | - | - | - |
| 1778227487 | 10° C | 47% | 1017.5 hPa | 0 mm | - | - | - |
| 1778226572 | 10° C | 50% | 1017.4 hPa | 0 mm | - | - | - |
| 1778225657 | 9.44° C | 51% | 1017.3 hPa | 0 mm | - | - | - |
| 1778224742 | 9.44° C | 49% | 1017.1 hPa | 0 mm | - | - | - |
| 1778223887 | 8.89° C | 55% | 1016.9 hPa | 0 mm | - | - | - |
| 1778222973 | 8.33° C | 56% | 1016.8 hPa | 0 mm | - | - | - |
| 1778221143 | 7.22° C | 65% | 1016.4 hPa | 0 mm | - | - | - |
| 1778215775 | 3.33° C | 86% | 1015.5 hPa | 0 mm | - | - | - |
| 1778214859 | 3.33° C | 83% | 1015.5 hPa | 0 mm | - | - | - |
| 1778213944 | 1.67° C | 88% | 1015.4 hPa | 0 mm | - | - | - |
| 1778212175 | -0.56° C | 92% | 1015.1 hPa | 0 mm | - | - | - |
| 1778211263 | -1.67° C | 93% | 1014.8 hPa | 0 mm | - | - | - |
| 1778210348 | -2.22° C | 94% | 1014.8 hPa | 0 mm | - | - | - |
| 1778208576 | -3.89° C | 96% | 1014.4 hPa | 0 mm | - | - | - |
| 1778206746 | -3.89° C | 96% | 1014.1 hPa | 0 mm | - | - | - |
* Rain latest hour (hover to see other rain measurements)
** Current wind speed in m/s (hover to see current wind gust speed)